createdAt,value
2023-11-08T00:03:59.624Z,13.55
2023-11-08T00:09:02.676Z,13.77
2023-11-08T00:14:09.888Z,13.52
2023-11-08T00:19:17.715Z,13.56
2023-11-08T00:24:20.899Z,13.68
2023-11-08T00:29:26.792Z,13.73
2023-11-08T00:34:30.070Z,13.44
2023-11-08T00:39:33.284Z,13.34
2023-11-08T00:44:36.328Z,13.31
2023-11-08T00:49:40.381Z,13.15
2023-11-08T00:54:44.155Z,13.12
2023-11-08T00:59:47.609Z,13.20
2023-11-08T01:04:50.808Z,13.13
2023-11-08T01:09:53.855Z,12.84
2023-11-08T01:14:56.916Z,13.15
2023-11-08T01:20:00.132Z,13.17
2023-11-08T01:25:04.422Z,13.27
2023-11-08T01:30:09.089Z,13.68
2023-11-08T01:35:15.172Z,14.39
2023-11-08T01:40:19.747Z,14.43
2023-11-08T01:45:23.576Z,15.14
2023-11-08T01:50:26.880Z,15.34
2023-11-08T01:55:29.900Z,15.40
2023-11-08T02:00:36.024Z,15.73
2023-11-08T02:05:39.246Z,15.47
2023-11-08T02:10:42.701Z,15.39
2023-11-08T02:15:45.731Z,15.75
2023-11-08T02:20:50.269Z,16.05
2023-11-08T02:25:56.871Z,15.73
2023-11-08T02:31:00.542Z,15.95
2023-11-08T02:36:04.225Z,15.35
2023-11-08T02:41:07.512Z,14.75
2023-11-08T02:46:10.517Z,14.81
2023-11-08T02:51:13.611Z,14.26
2023-11-08T02:56:17.627Z,13.67
2023-11-08T03:01:23.242Z,13.25
2023-11-08T03:06:26.472Z,12.71
2023-11-08T03:11:29.910Z,12.52
2023-11-08T03:16:34.566Z,12.51
2023-11-08T03:21:38.787Z,12.35
2023-11-08T03:26:42.299Z,12.05
2023-11-08T03:31:45.484Z,11.88
2023-11-08T03:36:48.454Z,11.85
2023-11-08T03:41:51.493Z,12.05
2023-11-08T03:46:54.636Z,12.86
2023-11-08T03:51:57.600Z,13.35
2023-11-08T03:57:01.901Z,13.42
2023-11-08T04:02:05.164Z,13.92
2023-11-08T04:07:08.919Z,14.17
2023-11-08T04:12:13.580Z,14.16
2023-11-08T04:17:19.254Z,14.33
2023-11-08T04:22:23.148Z,14.71
2023-11-08T04:27:26.079Z,14.64
2023-11-08T04:32:29.040Z,14.69
2023-11-08T04:37:32.615Z,14.25
2023-11-08T04:42:35.883Z,14.05
2023-11-08T04:47:40.331Z,13.84
2023-11-08T04:52:43.320Z,14.15
2023-11-08T04:57:46.417Z,13.95
2023-11-08T05:02:49.449Z,13.82
2023-11-08T05:07:53.454Z,13.26
2023-11-08T05:12:57.989Z,13.11
2023-11-08T05:18:02.059Z,12.81
2023-11-08T05:23:05.194Z,12.87
2023-11-08T05:28:08.661Z,12.49
2023-11-08T05:33:12.521Z,12.59
2023-11-08T05:38:15.688Z,12.49
2023-11-08T05:43:18.914Z,12.43
2023-11-08T05:48:22.726Z,12.29
2023-11-08T05:53:26.523Z,12.54
2023-11-08T05:58:29.526Z,12.62
2023-11-08T06:03:33.128Z,13.05
2023-11-08T06:08:38.123Z,13.26
2023-11-08T06:13:41.344Z,13.51
2023-11-08T06:18:44.842Z,14.18
2023-11-08T06:23:48.100Z,14.41
2023-11-08T06:28:51.021Z,15.34
2023-11-08T06:33:54.047Z,16.64
2023-11-08T06:38:57.066Z,18.51
2023-11-08T06:44:00.297Z,19.92
2023-11-08T06:49:03.332Z,20.90
2023-11-08T06:54:06.518Z,20.72
2023-11-08T06:59:10.575Z,21.53
2023-11-08T07:04:14.447Z,19.71
2023-11-08T07:09:17.659Z,22.05
2023-11-08T07:14:21.238Z,22.67
2023-11-08T07:19:24.911Z,20.62
2023-11-08T07:24:28.244Z,19.04
2023-11-08T07:29:31.854Z,18.43
2023-11-08T07:34:36.327Z,17.88
2023-11-08T07:39:39.811Z,17.76
2023-11-08T07:44:43.039Z,17.41
2023-11-08T07:49:46.537Z,17.43
2023-11-08T07:54:50.243Z,17.05
2023-11-08T07:59:54.472Z,16.87
2023-11-08T08:04:57.493Z,16.62
2023-11-08T08:10:01.738Z,16.54
2023-11-08T08:15:05.633Z,16.33
2023-11-08T08:20:10.849Z,16.13
2023-11-08T08:25:14.605Z,16.08
2023-11-08T08:30:19.798Z,15.87
2023-11-08T08:35:23.193Z,15.96
2023-11-08T08:45:53.136Z,16.21
2023-11-08T08:50:56.024Z,16.38
2023-11-08T08:56:00.111Z,17.75
2023-11-08T09:01:05.662Z,17.54
2023-11-08T09:06:10.729Z,17.40
2023-11-08T09:11:14.209Z,17.49
2023-11-08T09:16:18.307Z,18.66
2023-11-08T09:21:24.913Z,19.91
2023-11-08T09:26:28.020Z,20.15
2023-11-08T09:31:31.909Z,20.23
2023-11-08T09:36:41.939Z,19.72
2023-11-08T09:41:45.286Z,20.43
2023-11-08T09:46:50.926Z,20.58
2023-11-08T09:51:55.131Z,21.79
2023-11-08T09:57:00.432Z,23.33
2023-11-08T10:02:08.480Z,22.85
2023-11-08T10:07:11.735Z,21.74
2023-11-08T10:12:21.744Z,22.09
2023-11-08T10:19:30.212Z,21.73
2023-11-08T10:23:03.311Z,21.01
2023-11-08T10:28:08.713Z,21.60
2023-11-08T10:33:14.542Z,21.55
2023-11-08T10:38:20.378Z,21.31
2023-11-08T10:43:30.706Z,21.05
2023-11-08T10:48:34.564Z,20.72
2023-11-08T10:53:37.803Z,19.72
2023-11-08T10:58:45.196Z,19.17
2023-11-08T11:03:50.453Z,19.64
2023-11-08T11:08:55.724Z,19.04
2023-11-08T11:14:08.912Z,18.58
2023-11-08T11:19:17.253Z,18.14
2023-11-08T11:24:41.385Z,18.69
2023-11-08T11:29:45.840Z,18.13
2023-11-08T11:34:49.522Z,18.30
2023-11-08T11:39:57.240Z,18.10
2023-11-08T11:45:05.868Z,17.52
2023-11-08T11:50:10.339Z,17.69
2023-11-08T11:55:13.384Z,17.68
2023-11-08T12:00:18.571Z,17.60
2023-11-08T12:05:21.893Z,17.22
2023-11-08T12:10:28.103Z,16.66
2023-11-08T12:15:33.658Z,16.99
2023-11-08T12:20:43.069Z,16.86
2023-11-08T12:25:47.243Z,17.29
2023-11-08T12:30:50.346Z,16.99
2023-11-08T12:35:54.397Z,17.10
2023-11-08T12:41:05.754Z,16.67
2023-11-08T12:46:37.031Z,16.70
2023-11-08T12:51:39.756Z,16.61
2023-11-08T12:56:44.603Z,16.42
2023-11-08T13:01:51.835Z,16.61
2023-11-08T13:06:55.741Z,17.05
2023-11-08T13:11:59.380Z,16.97
2023-11-08T13:17:02.740Z,18.40
2023-11-08T13:22:07.261Z,17.56
2023-11-08T13:27:10.846Z,17.48
2023-11-08T13:32:14.541Z,18.62
2023-11-08T13:37:17.932Z,18.78
2023-11-08T13:42:21.453Z,17.91
2023-11-08T13:47:24.923Z,17.33
2023-11-08T13:52:28.925Z,17.03
2023-11-08T13:57:33.921Z,17.04
2023-11-08T14:02:38.573Z,16.97
2023-11-08T14:07:42.328Z,16.78
2023-11-08T14:12:46.606Z,17.20
2023-11-08T14:17:50.628Z,17.21
2023-11-08T14:22:54.910Z,17.80
2023-11-08T14:27:58.369Z,17.20
2023-11-08T14:33:02.393Z,17.33
2023-11-08T14:38:06.100Z,17.08
2023-11-08T14:43:10.726Z,17.04
2023-11-08T14:48:14.046Z,16.96
2023-11-08T14:53:18.130Z,16.61
2023-11-08T14:58:22.699Z,16.57
2023-11-08T15:03:26.747Z,16.62
2023-11-08T15:09:50.342Z,16.64
2023-11-08T15:13:54.508Z,16.61
2023-11-08T15:18:58.443Z,16.43
2023-11-08T15:24:02.063Z,16.29
2023-11-08T15:29:06.730Z,16.23
2023-11-08T15:34:11.153Z,16.02
2023-11-08T15:39:16.914Z,15.91
2023-11-08T15:44:23.249Z,15.61
2023-11-08T15:49:28.590Z,15.25
2023-11-08T15:54:32.108Z,15.10
2023-11-08T15:59:36.055Z,14.97
2023-11-08T16:04:41.168Z,14.73
2023-11-08T16:09:44.758Z,14.62
2023-11-08T16:14:48.629Z,14.60
2023-11-08T16:19:52.606Z,14.44
2023-11-08T16:24:57.549Z,14.53
2023-11-08T16:30:01.556Z,14.49
2023-11-08T16:35:05.867Z,14.28
2023-11-08T16:40:11.425Z,14.35
2023-11-08T16:45:14.986Z,14.47
2023-11-08T16:50:19.744Z,14.43
2023-11-08T16:55:24.076Z,14.27
2023-11-08T17:00:33.202Z,14.46
2023-11-08T17:05:37.420Z,14.53
2023-11-08T17:10:42.314Z,14.19
2023-11-08T17:15:45.896Z,14.51
2023-11-08T17:20:50.173Z,14.33
2023-11-08T17:25:54.075Z,14.24
2023-11-08T17:30:58.656Z,13.96
2023-11-08T17:36:03.049Z,13.97
2023-11-08T17:41:09.518Z,13.94
2023-11-08T17:46:14.233Z,14.42
2023-11-08T17:51:18.072Z,14.12
2023-11-08T17:56:22.200Z,14.26
2023-11-08T18:01:25.664Z,13.94
2023-11-08T18:06:29.747Z,13.71
2023-11-08T18:11:34.245Z,14.12
2023-11-08T18:16:38.113Z,13.95
2023-11-08T18:21:41.796Z,13.73
2023-11-08T18:26:45.656Z,13.52
2023-11-08T18:31:49.149Z,13.54
2023-11-08T18:36:53.388Z,13.61
2023-11-08T18:41:57.133Z,13.15
2023-11-08T18:47:01.190Z,13.48
2023-11-08T18:52:06.383Z,13.53
2023-11-08T18:57:09.944Z,13.30
2023-11-08T19:02:13.113Z,13.08
2023-11-08T19:07:18.146Z,12.98
2023-11-08T19:12:22.452Z,12.90
2023-11-08T19:17:27.998Z,12.62
2023-11-08T19:22:33.013Z,12.59
2023-11-08T19:27:41.195Z,12.37
2023-11-08T19:32:46.335Z,12.31
2023-11-08T19:37:49.835Z,12.22
2023-11-08T19:42:54.059Z,11.95
2023-11-08T19:47:58.319Z,11.70
2023-11-08T19:53:04.487Z,11.30
2023-11-08T19:58:10.341Z,11.05
2023-11-08T20:03:13.911Z,10.67
2023-11-08T20:08:18.210Z,10.53
2023-11-08T20:13:21.583Z,10.31
2023-11-08T20:18:25.482Z,10.14
2023-11-08T20:23:29.606Z,9.98
2023-11-08T20:28:37.549Z,9.59
2023-11-08T20:33:41.187Z,9.77
2023-11-08T20:38:45.817Z,9.67
2023-11-08T20:43:50.474Z,10.02
2023-11-08T20:48:54.652Z,10.40
2023-11-08T20:53:58.948Z,10.21
2023-11-08T20:59:02.886Z,9.81
2023-11-08T21:04:09.425Z,9.45
2023-11-08T21:09:13.466Z,9.28
2023-11-08T21:14:22.843Z,9.09
2023-11-08T21:19:27.337Z,9.13
2023-11-08T21:24:30.905Z,9.03
2023-11-08T21:29:34.753Z,8.97
2023-11-08T21:34:41.977Z,8.82
2023-11-08T21:39:45.867Z,8.74
2023-11-08T21:44:50.111Z,8.97
2023-11-08T21:49:54.205Z,9.11
2023-11-08T21:54:57.800Z,8.99
2023-11-08T22:00:01.646Z,9.39
2023-11-08T22:05:06.334Z,9.38
2023-11-08T22:10:11.128Z,9.55
2023-11-08T22:15:14.342Z,9.47
2023-11-08T22:20:17.877Z,9.30
2023-11-08T22:25:21.362Z,9.36
2023-11-08T22:30:24.859Z,9.22
2023-11-08T22:35:27.920Z,9.15
2023-11-08T22:40:31.494Z,8.36
2023-11-08T22:45:35.591Z,8.80
2023-11-08T22:50:41.234Z,8.86
2023-11-08T22:55:44.702Z,8.61
2023-11-08T23:00:50.728Z,8.70
2023-11-08T23:05:55.021Z,8.59
2023-11-08T23:10:58.817Z,8.52
2023-11-08T23:16:02.421Z,8.45
2023-11-08T23:21:06.592Z,8.46
2023-11-08T23:26:10.275Z,8.25
2023-11-08T23:31:13.982Z,8.26
2023-11-08T23:36:17.996Z,8.16
2023-11-08T23:41:21.206Z,7.90
2023-11-08T23:46:25.447Z,7.87
2023-11-08T23:51:28.395Z,7.77
2023-11-08T23:56:32.068Z,7.56
